Time;durP1;ratioP1;P1;durP2;ratioP2;P2;SDS_P1;SDS_P2;PMS_P1;PMS_P2;Temp;Humidity;BMP_temperature;BMP_pressure;BME280_temperature;BME280_humidity;BME280_pressure;Samples;Min_cycle;Max_cycle;Signal;HPM_P1;HPM_P2
2023/08/13 00:01:43;;;;;;;9.75;4.82;;;;;;;;;;4976005;28;20050;-65
2023/08/13 00:04:09;;;;;;;13.07;4.03;;;;;;;;;;4983002;28;20092;-65
2023/08/13 00:06:35;;;;;;;15.48;5.07;;;;;;;;;;4993235;28;20046;-64
2023/08/13 00:09:02;;;;;;;11.20;4.18;;;;;;;;;;4995270;28;20061;-64
2023/08/13 00:11:29;;;;;;;16.98;4.97;;;;;;;;;;4987755;28;20100;-65
2023/08/13 00:13:55;;;;;;;12.15;4.03;;;;;;;;;;4976769;28;20061;-65
2023/08/13 00:16:21;;;;;;;14.38;4.82;;;;;;;;;;4991046;28;20505;-64
2023/08/13 00:18:47;;;;;;;9.65;3.70;;;;;;;;;;4990422;28;20129;-67
2023/08/13 00:21:13;;;;;;;8.95;4.25;;;;;;;;;;4987633;28;20054;-65
2023/08/13 00:23:39;;;;;;;9.60;4.57;;;;;;;;;;4990559;28;20378;-65
2023/08/13 00:26:06;;;;;;;14.57;5.20;;;;;;;;;;4987757;28;20034;-64
2023/08/13 00:28:32;;;;;;;11.07;4.55;;;;;;;;;;4985957;28;20037;-64
2023/08/13 00:30:58;;;;;;;10.73;4.47;;;;;;;;;;4988406;28;20061;-64
2023/08/13 00:33:24;;;;;;;8.98;3.78;;;;;;;;;;5003689;28;20045;-65
2023/08/13 00:35:51;;;;;;;9.90;3.47;;;;;;;;;;4990194;28;20034;-64
2023/08/13 00:38:18;;;;;;;9.20;3.90;;;;;;;;;;4990069;28;20057;-64
2023/08/13 00:40:44;;;;;;;11.55;3.50;;;;;;;;;;4975486;28;20108;-64
2023/08/13 00:43:12;;;;;;;12.70;3.47;;;;;;;;;;4989138;28;20050;-63
2023/08/13 00:45:38;;;;;;;13.43;4.13;;;;;;;;;;4971000;28;20552;-64
2023/08/13 00:48:05;;;;;;;12.18;3.03;;;;;;;;;;4998020;28;20053;-65
2023/08/13 00:50:32;;;;;;;8.70;3.80;;;;;;;;;;4980850;28;20046;-64
2023/08/13 00:52:58;;;;;;;10.88;4.30;;;;;;;;;;5000922;28;20042;-63
2023/08/13 00:55:24;;;;;;;8.05;3.92;;;;;;;;;;4977927;28;20038;-63
2023/08/13 00:57:50;;;;;;;7.25;3.50;;;;;;;;;;4989267;28;20089;-63
2023/08/13 01:00:17;;;;;;;7.53;3.08;;;;;;;;;;4992204;28;20045;-64
2023/08/13 01:02:44;;;;;;;8.07;2.95;;;;;;;;;;4988691;28;20398;-63
2023/08/13 01:05:10;;;;;;;12.18;4.25;;;;;;;;;;4989609;28;20050;-64
2023/08/13 01:07:51;;;;;;;9.20;3.63;;;;;;;;;;4988334;28;20066;-64
2023/08/13 01:10:26;;;;;;;9.52;3.63;;;;;;;;;;4986581;28;20152;-64
2023/08/13 01:13:04;;;;;;;6.22;3.40;;;;;;;;;;4990852;28;20060;-64
2023/08/13 01:15:32;;;;;;;8.20;3.78;;;;;;;;;;4970300;28;20524;-63
2023/08/13 01:17:59;;;;;;;7.15;3.00;;;;;;;;;;4987465;28;20406;-64
2023/08/13 01:20:29;;;;;;;12.63;3.38;;;;;;;;;;4996093;28;20089;-65
2023/08/13 01:22:55;;;;;;;7.80;3.42;;;;;;;;;;4987853;28;20129;-65
2023/08/13 01:25:22;;;;;;;13.98;4.10;;;;;;;;;;4992277;28;20042;-64
2023/08/13 01:27:55;;;;;;;7.72;3.70;;;;;;;;;;4970195;28;20046;-63
2023/08/13 01:30:44;;;;;;;14.55;3.40;;;;;;;;;;4985595;28;20030;-64
2023/08/13 01:33:13;;;;;;;10.43;3.63;;;;;;;;;;4970473;28;20564;-63
2023/08/13 01:35:40;;;;;;;10.18;3.55;;;;;;;;;;4988768;28;20489;-63
2023/08/13 01:38:07;;;;;;;9.48;4.18;;;;;;;;;;4987912;28;20053;-64
2023/08/13 01:40:33;;;;;;;9.23;3.75;;;;;;;;;;4984582;28;20136;-64
2023/08/13 01:42:59;;;;;;;7.78;4.05;;;;;;;;;;4987896;28;20121;-64
2023/08/13 01:45:25;;;;;;;9.60;4.05;;;;;;;;;;4988597;28;20045;-65
2023/08/13 01:47:51;;;;;;;11.90;3.65;;;;;;;;;;4973233;28;20046;-64
2023/08/13 01:50:18;;;;;;;7.00;3.22;;;;;;;;;;4971205;28;20046;-64
2023/08/13 01:52:44;;;;;;;9.13;5.15;;;;;;;;;;4988191;28;20039;-64
2023/08/13 01:55:10;;;;;;;8.10;2.83;;;;;;;;;;4987171;28;20148;-64
2023/08/13 01:57:36;;;;;;;7.30;4.30;;;;;;;;;;4987624;28;20489;-64
2023/08/13 02:00:02;;;;;;;10.90;3.67;;;;;;;;;;4983686;28;20168;-64
2023/08/13 02:02:28;;;;;;;6.40;3.00;;;;;;;;;;4986945;28;20045;-65
2023/08/13 02:04:54;;;;;;;9.93;3.03;;;;;;;;;;4991872;28;20125;-63
2023/08/13 02:07:20;;;;;;;9.07;3.30;;;;;;;;;;4990088;28;20062;-63
2023/08/13 02:09:47;;;;;;;14.32;3.85;;;;;;;;;;4987785;28;20050;-64
2023/08/13 02:12:13;;;;;;;7.85;3.40;;;;;;;;;;4991611;28;20033;-65
2023/08/13 02:14:39;;;;;;;8.90;3.15;;;;;;;;;;4986143;28;20050;-65
2023/08/13 02:17:05;;;;;;;9.43;3.35;;;;;;;;;;4977686;28;20389;-64
2023/08/13 02:19:31;;;;;;;10.18;4.18;;;;;;;;;;4990961;28;20045;-64
2023/08/13 02:21:57;;;;;;;9.93;3.28;;;;;;;;;;4994246;28;20049;-64
2023/08/13 02:24:23;;;;;;;9.02;3.78;;;;;;;;;;4987974;28;20050;-63
2023/08/13 02:26:49;;;;;;;9.57;3.50;;;;;;;;;;4990161;28;20041;-63
2023/08/13 02:29:15;;;;;;;14.77;3.60;;;;;;;;;;4980854;28;20065;-64
2023/08/13 02:31:42;;;;;;;12.57;4.07;;;;;;;;;;4968850;28;20053;-63
2023/08/13 02:34:08;;;;;;;9.18;3.63;;;;;;;;;;4988752;28;20046;-64
2023/08/13 02:36:34;;;;;;;6.45;3.15;;;;;;;;;;4990919;28;20042;-63
2023/08/13 02:39:00;;;;;;;8.50;3.15;;;;;;;;;;4986767;28;20042;-64
2023/08/13 02:41:26;;;;;;;6.65;3.28;;;;;;;;;;4971264;28;20165;-64
2023/08/13 02:43:58;;;;;;;10.10;3.83;;;;;;;;;;4969853;28;20269;-64
2023/08/13 02:46:25;;;;;;;10.50;3.80;;;;;;;;;;4968712;28;20049;-65
2023/08/13 02:48:55;;;;;;;7.28;3.28;;;;;;;;;;4970082;28;20482;-65
2023/08/13 02:51:22;;;;;;;11.73;3.58;;;;;;;;;;4986224;28;20050;-63
2023/08/13 02:53:48;;;;;;;6.93;3.08;;;;;;;;;;4985135;28;20057;-64
2023/08/13 02:56:14;;;;;;;8.35;3.70;;;;;;;;;;4988089;28;20068;-64
2023/08/13 02:58:40;;;;;;;9.20;2.97;;;;;;;;;;4987455;28;20066;-64
2023/08/13 03:01:06;;;;;;;9.13;3.22;;;;;;;;;;4990774;28;20451;-64
2023/08/13 03:03:32;;;;;;;10.80;2.85;;;;;;;;;;4991058;28;20148;-64
2023/08/13 03:05:58;;;;;;;10.10;3.50;;;;;;;;;;4990698;28;20050;-64
2023/08/13 03:08:25;;;;;;;9.48;4.18;;;;;;;;;;4990874;28;20537;-65
2023/08/13 03:10:51;;;;;;;6.72;3.33;;;;;;;;;;4991571;28;20030;-64
2023/08/13 03:13:17;;;;;;;10.95;4.22;;;;;;;;;;4989439;28;20132;-64
2023/08/13 03:15:44;;;;;;;8.07;3.47;;;;;;;;;;4990086;28;20101;-64
2023/08/13 03:18:10;;;;;;;9.02;3.63;;;;;;;;;;4990746;28;20045;-64
2023/08/13 03:20:37;;;;;;;7.20;3.20;;;;;;;;;;4969651;28;20505;-64
2023/08/13 03:23:04;;;;;;;9.43;4.03;;;;;;;;;;4988109;28;20129;-64
2023/08/13 03:25:30;;;;;;;6.68;3.08;;;;;;;;;;4990012;28;20038;-63
2023/08/13 03:27:56;;;;;;;8.20;3.25;;;;;;;;;;4996380;28;20042;-63
2023/08/13 03:30:22;;;;;;;6.18;3.35;;;;;;;;;;4983588;28;20043;-64
2023/08/13 03:32:48;;;;;;;6.55;3.25;;;;;;;;;;4990822;28;20038;-64
2023/08/13 03:35:20;;;;;;;7.67;3.23;;;;;;;;;;4982488;28;20042;-64
2023/08/13 03:37:46;;;;;;;8.10;3.58;;;;;;;;;;4990510;28;20331;-65
2023/08/13 03:40:13;;;;;;;9.98;3.75;;;;;;;;;;4982803;28;20563;-65
2023/08/13 03:42:39;;;;;;;6.97;3.25;;;;;;;;;;4990315;28;20034;-63
2023/08/13 03:45:05;;;;;;;7.85;3.40;;;;;;;;;;4978460;28;20061;-65
2023/08/13 03:47:31;;;;;;;8.52;3.35;;;;;;;;;;4989739;28;20188;-65
2023/08/13 03:49:57;;;;;;;9.68;3.40;;;;;;;;;;4991343;28;20409;-64
2023/08/13 03:52:24;;;;;;;9.93;3.08;;;;;;;;;;4990178;28;20070;-65
2023/08/13 03:54:50;;;;;;;11.23;4.13;;;;;;;;;;4989272;28;20041;-64
2023/08/13 03:57:16;;;;;;;9.55;2.97;;;;;;;;;;4989738;28;20552;-65
2023/08/13 03:59:42;;;;;;;16.10;3.70;;;;;;;;;;4989294;28;20049;-65
2023/08/13 04:02:08;;;;;;;9.70;4.72;;;;;;;;;;4990534;28;20039;-64
2023/08/13 04:04:34;;;;;;;6.97;3.25;;;;;;;;;;4989641;28;20085;-68
2023/08/13 04:07:00;;;;;;;6.15;3.25;;;;;;;;;;4990700;28;20121;-63
2023/08/13 04:09:26;;;;;;;9.30;3.88;;;;;;;;;;4991339;28;20076;-65
2023/08/13 04:11:52;;;;;;;11.45;4.32;;;;;;;;;;4954768;28;20188;-64
2023/08/13 04:14:18;;;;;;;13.07;4.15;;;;;;;;;;4989381;28;20038;-64
2023/08/13 04:16:45;;;;;;;9.30;3.47;;;;;;;;;;4988310;28;20300;-64
2023/08/13 04:19:11;;;;;;;16.85;4.03;;;;;;;;;;4987052;28;20486;-64
2023/08/13 04:21:37;;;;;;;10.13;3.55;;;;;;;;;;4989668;28;20108;-63
2023/08/13 04:24:03;;;;;;;10.35;3.85;;;;;;;;;;4969484;28;20069;-63
2023/08/13 04:26:29;;;;;;;10.13;3.83;;;;;;;;;;4989531;28;20118;-64
2023/08/13 04:28:55;;;;;;;8.00;3.67;;;;;;;;;;4986171;28;20052;-65
2023/08/13 04:31:22;;;;;;;11.88;4.13;;;;;;;;;;4994017;28;20042;-65
2023/08/13 04:33:48;;;;;;;9.75;3.72;;;;;;;;;;4975522;28;20354;-64
2023/08/13 04:36:15;;;;;;;7.90;3.45;;;;;;;;;;4989178;28;20491;-64
2023/08/13 04:38:41;;;;;;;16.35;4.32;;;;;;;;;;4974862;28;20088;-65
2023/08/13 04:41:07;;;;;;;6.85;3.13;;;;;;;;;;4989222;28;20139;-64
2023/08/13 04:43:33;;;;;;;8.98;3.67;;;;;;;;;;4989548;28;20038;-64
2023/08/13 04:45:59;;;;;;;8.95;3.00;;;;;;;;;;4989377;28;20105;-64
2023/08/13 04:48:44;;;;;;;6.80;2.88;;;;;;;;;;4983607;28;20035;-65
2023/08/13 04:51:11;;;;;;;12.00;3.75;;;;;;;;;;4970862;28;20046;-64
2023/08/13 04:53:37;;;;;;;13.48;3.95;;;;;;;;;;4988958;28;20042;-65
2023/08/13 04:56:06;;;;;;;8.25;3.47;;;;;;;;;;4988338;28;20072;-64
2023/08/13 04:58:33;;;;;;;10.63;3.88;;;;;;;;;;4987970;28;20449;-64
2023/08/13 05:00:59;;;;;;;8.55;3.67;;;;;;;;;;4987879;28;20053;-64
2023/08/13 05:03:25;;;;;;;7.97;3.47;;;;;;;;;;4988391;28;20077;-64
2023/08/13 05:05:52;;;;;;;8.40;3.67;;;;;;;;;;4993139;28;20050;-65
2023/08/13 05:08:18;;;;;;;10.07;4.22;;;;;;;;;;4963550;28;20533;-65
2023/08/13 05:10:45;;;;;;;7.15;3.40;;;;;;;;;;4987436;28;20042;-64
2023/08/13 05:13:13;;;;;;;8.27;3.45;;;;;;;;;;4989467;28;20194;-64
2023/08/13 05:15:39;;;;;;;8.23;3.25;;;;;;;;;;4989797;28;20121;-64
2023/08/13 05:18:06;;;;;;;7.97;3.42;;;;;;;;;;4994679;28;20089;-65
2023/08/13 05:20:38;;;;;;;12.25;4.18;;;;;;;;;;4992513;28;20224;-65
2023/08/13 05:23:04;;;;;;;6.72;3.55;;;;;;;;;;4943090;28;20134;-65
2023/08/13 05:25:36;;;;;;;11.80;3.90;;;;;;;;;;4991553;28;20038;-65
2023/08/13 05:28:02;;;;;;;7.53;3.20;;;;;;;;;;4989641;28;20054;-65
2023/08/13 05:30:28;;;;;;;8.25;3.08;;;;;;;;;;4988975;28;20684;-65
2023/08/13 05:32:54;;;;;;;7.45;3.45;;;;;;;;;;4992367;28;20061;-65
2023/08/13 05:35:21;;;;;;;7.65;3.88;;;;;;;;;;4991322;28;20030;-64
2023/08/13 05:37:47;;;;;;;12.32;3.65;;;;;;;;;;4989078;28;20042;-65
2023/08/13 05:40:13;;;;;;;6.78;3.92;;;;;;;;;;4988057;28;20030;-64
2023/08/13 05:42:40;;;;;;;7.55;3.40;;;;;;;;;;4988682;28;20120;-65
2023/08/13 05:45:07;;;;;;;6.53;3.30;;;;;;;;;;4983031;28;20039;-65
2023/08/13 05:47:33;;;;;;;9.68;3.47;;;;;;;;;;4988038;28;20046;-65
2023/08/13 05:49:59;;;;;;;11.52;4.28;;;;;;;;;;4969695;28;20194;-64
2023/08/13 05:52:26;;;;;;;8.18;3.58;;;;;;;;;;4988882;28;20070;-65
2023/08/13 05:54:52;;;;;;;7.65;3.78;;;;;;;;;;4985640;28;20050;-65
2023/08/13 05:57:18;;;;;;;6.28;2.97;;;;;;;;;;4987850;28;20046;-65
2023/08/13 05:59:44;;;;;;;6.88;3.22;;;;;;;;;;4993909;28;20034;-64
2023/08/13 06:02:10;;;;;;;6.45;3.28;;;;;;;;;;4987811;28;20042;-65
2023/08/13 06:04:36;;;;;;;11.32;4.25;;;;;;;;;;4991572;28;20064;-65
2023/08/13 06:07:03;;;;;;;10.00;3.35;;;;;;;;;;4987622;28;20534;-64
2023/08/13 06:09:32;;;;;;;8.55;3.30;;;;;;;;;;4983598;28;20109;-65
2023/08/13 06:11:58;;;;;;;5.05;3.30;;;;;;;;;;4987846;28;20388;-64
2023/08/13 06:14:25;;;;;;;7.35;2.90;;;;;;;;;;4987111;28;20537;-64
2023/08/13 06:16:51;;;;;;;8.50;3.20;;;;;;;;;;4987364;28;20490;-65
2023/08/13 06:19:18;;;;;;;10.00;4.55;;;;;;;;;;4986451;28;20046;-65
2023/08/13 06:21:44;;;;;;;9.48;4.95;;;;;;;;;;4970141;28;20564;-64
2023/08/13 06:24:10;;;;;;;10.35;4.25;;;;;;;;;;4970324;28;20466;-64
2023/08/13 06:26:36;;;;;;;10.43;4.45;;;;;;;;;;4988509;28;20527;-64
2023/08/13 06:29:03;;;;;;;10.43;3.58;;;;;;;;;;4981628;28;20288;-64
2023/08/13 06:31:29;;;;;;;10.45;3.28;;;;;;;;;;4972223;28;20073;-63
2023/08/13 06:33:55;;;;;;;6.75;3.85;;;;;;;;;;4986769;28;20092;-64
2023/08/13 06:36:21;;;;;;;9.65;3.33;;;;;;;;;;4987602;28;20565;-63
2023/08/13 06:38:47;;;;;;;11.27;4.00;;;;;;;;;;4982940;28;20080;-63
2023/08/13 06:41:13;;;;;;;10.52;4.20;;;;;;;;;;4988012;28;20126;-63
2023/08/13 06:43:39;;;;;;;6.93;4.03;;;;;;;;;;4984125;28;20121;-63
2023/08/13 06:46:05;;;;;;;12.95;3.92;;;;;;;;;;4987987;28;20675;-64
2023/08/13 06:48:32;;;;;;;12.00;4.55;;;;;;;;;;4986926;28;20042;-64
2023/08/13 06:50:59;;;;;;;11.98;4.95;;;;;;;;;;4987523;28;20296;-64
2023/08/13 06:53:26;;;;;;;8.90;4.13;;;;;;;;;;4988141;28;20607;-64
2023/08/13 06:55:52;;;;;;;7.97;4.15;;;;;;;;;;4986736;28;20050;-63
2023/08/13 06:58:18;;;;;;;8.10;3.95;;;;;;;;;;4987532;28;20045;-64
2023/08/13 07:00:46;;;;;;;12.52;4.00;;;;;;;;;;4986588;28;20069;-64
2023/08/13 07:03:12;;;;;;;13.50;4.05;;;;;;;;;;4987504;28;20061;-64
2023/08/13 07:05:42;;;;;;;8.57;4.10;;;;;;;;;;4967285;28;20065;-64
2023/08/13 07:08:09;;;;;;;12.88;4.20;;;;;;;;;;4979625;28;20470;-64
2023/08/13 07:10:35;;;;;;;9.38;4.22;;;;;;;;;;4988191;28;20053;-65
2023/08/13 07:13:02;;;;;;;7.38;3.70;;;;;;;;;;4986869;28;20521;-64
2023/08/13 07:15:29;;;;;;;8.52;3.50;;;;;;;;;;4985899;28;20065;-64
2023/08/13 07:17:55;;;;;;;9.98;4.55;;;;;;;;;;4986749;28;20367;-64
2023/08/13 07:20:21;;;;;;;8.02;3.55;;;;;;;;;;4982208;28;20089;-65
2023/08/13 07:22:47;;;;;;;7.85;4.00;;;;;;;;;;4987040;28;20062;-64
2023/08/13 07:25:13;;;;;;;9.45;5.28;;;;;;;;;;4984271;28;20057;-65
2023/08/13 07:27:40;;;;;;;7.47;4.40;;;;;;;;;;4964292;28;20074;-64
2023/08/13 07:30:07;;;;;;;8.90;4.82;;;;;;;;;;4987640;28;20508;-65
2023/08/13 07:32:35;;;;;;;7.65;3.50;;;;;;;;;;4987564;28;20121;-65
2023/08/13 07:35:01;;;;;;;7.18;2.75;;;;;;;;;;4990629;28;20537;-65
2023/08/13 07:37:28;;;;;;;10.25;4.60;;;;;;;;;;4987916;28;20085;-64
2023/08/13 07:39:54;;;;;;;11.63;4.55;;;;;;;;;;4984689;28;20527;-65
2023/08/13 07:42:21;;;;;;;8.55;4.30;;;;;;;;;;4988435;28;20046;-65
2023/08/13 07:44:47;;;;;;;8.38;3.22;;;;;;;;;;4987916;28;20062;-65
2023/08/13 07:47:16;;;;;;;8.40;4.05;;;;;;;;;;4990186;28;20050;-65
2023/08/13 07:49:42;;;;;;;8.27;3.85;;;;;;;;;;4985629;28;20047;-64
2023/08/13 07:52:09;;;;;;;4.60;2.95;;;;;;;;;;4989528;28;20045;-64
2023/08/13 07:54:38;;;;;;;13.85;4.15;;;;;;;;;;4989290;28;20187;-64
2023/08/13 07:57:07;;;;;;;10.45;3.88;;;;;;;;;;4990316;28;20425;-64
2023/08/13 07:59:33;;;;;;;7.35;3.70;;;;;;;;;;4986122;28;20073;-64
2023/08/13 08:02:00;;;;;;;10.38;3.80;;;;;;;;;;4994275;28;20084;-65
2023/08/13 08:04:26;;;;;;;5.97;3.13;;;;;;;;;;4978393;28;20588;-64
2023/08/13 08:06:52;;;;;;;6.55;3.25;;;;;;;;;;4991394;28;20051;-64
2023/08/13 08:09:18;;;;;;;7.65;3.10;;;;;;;;;;4993610;28;20084;-64
2023/08/13 08:11:44;;;;;;;12.90;3.75;;;;;;;;;;4990257;28;20042;-64
2023/08/13 08:14:10;;;;;;;7.60;3.15;;;;;;;;;;4989452;28;20057;-64
2023/08/13 08:16:36;;;;;;;6.65;3.72;;;;;;;;;;4992154;28;20050;-63
2023/08/13 08:19:02;;;;;;;7.15;3.70;;;;;;;;;;4994257;28;20042;-64
2023/08/13 08:21:29;;;;;;;5.28;2.85;;;;;;;;;;4989317;28;20042;-64
2023/08/13 08:23:55;;;;;;;7.03;3.05;;;;;;;;;;4992668;28;20081;-64
2023/08/13 08:26:21;;;;;;;9.05;3.80;;;;;;;;;;4990939;28;20048;-65
2023/08/13 08:28:47;;;;;;;6.55;3.10;;;;;;;;;;4973029;28;20043;-64
2023/08/13 08:31:13;;;;;;;10.20;4.18;;;;;;;;;;4985215;28;20035;-64
2023/08/13 08:33:39;;;;;;;8.82;3.92;;;;;;;;;;4994248;28;20567;-63
2023/08/13 08:36:05;;;;;;;6.28;2.97;;;;;;;;;;4987726;28;20049;-63
2023/08/13 08:38:31;;;;;;;6.88;2.92;;;;;;;;;;4989966;28;20582;-63
2023/08/13 08:40:59;;;;;;;8.63;3.90;;;;;;;;;;4969181;28;20541;-63
2023/08/13 08:43:27;;;;;;;5.28;3.05;;;;;;;;;;4976181;28;20048;-66
2023/08/13 08:45:54;;;;;;;9.95;3.20;;;;;;;;;;4985032;28;20351;-65
2023/08/13 08:48:20;;;;;;;8.80;3.75;;;;;;;;;;4983582;28;20038;-65
2023/08/13 08:50:46;;;;;;;9.98;3.83;;;;;;;;;;4988765;28;20046;-64
2023/08/13 08:53:13;;;;;;;7.45;3.70;;;;;;;;;;4990007;28;20498;-65
2023/08/13 08:55:41;;;;;;;7.07;3.20;;;;;;;;;;4989015;28;20417;-64
2023/08/13 08:58:07;;;;;;;7.07;2.83;;;;;;;;;;4988914;28;20038;-65
2023/08/13 09:00:33;;;;;;;6.97;2.83;;;;;;;;;;4989772;28;20387;-64
2023/08/13 09:03:00;;;;;;;5.05;2.92;;;;;;;;;;4988359;28;20049;-65
2023/08/13 09:05:26;;;;;;;6.40;3.75;;;;;;;;;;4989084;28;20042;-65
2023/08/13 09:07:52;;;;;;;5.68;3.00;;;;;;;;;;4985340;28;20405;-65
2023/08/13 09:10:19;;;;;;;13.70;4.05;;;;;;;;;;4987833;28;20558;-65
2023/08/13 09:12:45;;;;;;;11.40;2.92;;;;;;;;;;4988203;28;20050;-65
2023/08/13 09:15:13;;;;;;;7.90;3.58;;;;;;;;;;4988460;28;20121;-65
2023/08/13 09:17:40;;;;;;;6.82;2.70;;;;;;;;;;4988347;28;20379;-65
2023/08/13 09:20:24;;;;;;;5.93;2.90;;;;;;;;;;4973993;28;20050;-64
2023/08/13 09:22:50;;;;;;;7.72;2.42;;;;;;;;;;4988098;28;20042;-65
2023/08/13 09:25:17;;;;;;;7.70;3.00;;;;;;;;;;4987384;28;20045;-65
2023/08/13 09:27:45;;;;;;;5.18;3.15;;;;;;;;;;4989440;28;20370;-65
2023/08/13 09:30:18;;;;;;;8.18;2.78;;;27.60;94.70;;;;;;4987208;28;20189;-65
2023/08/13 09:32:46;;;;;;;5.57;2.92;;;21.70;99.90;;;;;;4970978;28;20122;-64
2023/08/13 09:35:12;;;;;;;7.45;2.80;;;;;;;;;;4972896;28;20061;-65
2023/08/13 09:37:38;;;;;;;8.63;3.95;;;;;;;;;;4989227;28;20042;-64
2023/08/13 09:40:06;;;;;;;11.07;4.03;;;;;;;;;;4979320;28;20098;-65
2023/08/13 09:42:35;;;;;;;5.85;2.97;;;;;;;;;;4989300;28;20394;-65
2023/08/13 09:45:03;;;;;;;7.28;2.95;;;;;;;;;;4967937;28;20129;-65
2023/08/13 09:47:30;;;;;;;13.68;3.30;;;;;;;;;;4972887;28;20462;-65
2023/08/13 09:49:57;;;;;;;7.80;2.60;;;;;;;;;;4989402;28;20042;-65
2023/08/13 09:52:26;;;;;;;5.70;2.58;;;;;;;;;;4988194;28;20044;-65
2023/08/13 09:55:01;;;;;;;7.30;2.95;;;;;;;;;;4988255;28;20054;-65
2023/08/13 09:57:28;;;;;;;8.20;2.95;;;;;;;;;;4984459;28;20394;-65
2023/08/13 09:59:55;;;;;;;10.85;2.75;;;;;;;;;;4991269;28;20042;-65
2023/08/13 10:02:21;;;;;;;4.00;2.42;;;;;;;;;;4991960;28;20046;-64
2023/08/13 10:04:47;;;;;;;10.23;3.40;;;;;;;;;;4991841;28;20438;-65
2023/08/13 10:07:14;;;;;;;9.60;3.33;;;;;;;;;;4976348;28;20105;-65
2023/08/13 10:09:40;;;;;;;7.85;3.08;;;;;;;;;;4987807;28;20056;-65
2023/08/13 10:12:07;;;;;;;6.95;3.17;;;;;;;;;;4987994;28;20037;-65
2023/08/13 10:14:34;;;;;;;10.85;3.22;;;;;;;;;;4989272;28;20549;-65
2023/08/13 10:17:06;;;;;;;8.40;2.90;;;;;;;;;;4992897;28;20575;-65
2023/08/13 10:19:36;;;;;;;4.80;2.88;;;;;;;;;;4980623;28;20041;-64
2023/08/13 10:22:02;;;;;;;6.57;2.90;;;;;;;;;;4988897;28;20576;-64
2023/08/13 10:24:29;;;;;;;7.38;2.95;;;;;;;;;;4987768;28;20040;-64
2023/08/13 10:26:55;;;;;;;7.38;2.58;;;;;;;;;;4987035;28;20046;-65
2023/08/13 10:29:22;;;;;;;5.72;2.55;;;;;;;;;;4984042;28;20034;-64
2023/08/13 10:31:55;;;;;;;9.40;3.28;;;;;;;;;;4976778;28;20118;-65
2023/08/13 10:34:38;;;;;;;8.18;3.17;;;;;;;;;;4990267;28;20455;-64
2023/08/13 10:37:08;;;;;;;4.97;3.40;;;;;;;;;;4986600;28;20105;-65
2023/08/13 10:39:40;;;;;;;7.88;3.38;;;;;;;;;;4990434;28;20030;-64
2023/08/13 10:42:25;;;;;;;8.88;3.63;;;;;;;;;;4983377;28;20113;-64
2023/08/13 10:44:51;;;;;;;7.20;3.17;;;;;;;;;;4989576;28;20056;-64
2023/08/13 10:47:17;;;;;;;4.45;2.58;;;;;;;;;;4971018;28;20043;-64
2023/08/13 10:49:43;;;;;;;6.30;2.92;;;;;;;;;;4986852;28;20426;-65
2023/08/13 10:52:09;;;;;;;5.38;2.70;;;;;;;;;;4987309;28;20121;-64
2023/08/13 10:54:36;;;;;;;7.68;3.05;;;;;;;;;;4986969;28;20121;-65
2023/08/13 10:57:02;;;;;;;4.25;2.63;;;;;;;;;;4988161;28;20617;-64
2023/08/13 10:59:29;;;;;;;10.65;3.05;;;;;;;;;;4990862;28;20449;-65
2023/08/13 11:02:14;;;;;;;4.97;3.15;;;;;;;;;;4987502;28;20038;-65
2023/08/13 11:04:42;;;;;;;9.20;2.60;;;;;;;;;;4985978;28;20085;-64
2023/08/13 11:07:09;;;;;;;5.50;2.38;;;;;;;;;;4987693;28;20502;-65
2023/08/13 11:09:36;;;;;;;5.10;2.78;;;;;;;;;;4987565;28;20045;-65
2023/08/13 11:12:02;;;;;;;8.98;3.30;;;;;;;;;;4990861;28;20126;-65
2023/08/13 11:14:29;;;;;;;7.82;2.90;;;;;;;;;;4986932;28;20533;-64
2023/08/13 11:16:56;;;;;;;7.43;3.55;;;;;;;;;;4987073;28;20069;-65
2023/08/13 11:19:22;;;;;;;7.88;2.60;;;;;;;;;;4990611;28;20038;-65
2023/08/13 11:21:48;;;;;;;5.18;3.08;;;;;;;;;;4989388;28;20113;-64
2023/08/13 11:24:21;;;;;;;6.10;3.38;;;;;;;;;;4991223;28;20046;-64
2023/08/13 11:26:50;;;;;;;5.00;3.03;;;;;;;;;;4992156;28;20042;-64
2023/08/13 11:29:23;;;;;;;4.88;2.80;;;;;;;;;;4984545;28;20495;-65
2023/08/13 11:31:50;;;;;;;6.15;3.15;;;;;;;;;;4991687;28;20121;-65
2023/08/13 11:34:17;;;;;;;6.90;3.15;;;;;;;;;;4995813;28;20042;-65
2023/08/13 11:36:46;;;;;;;8.63;2.90;;;;;;;;;;4993475;28;20041;-65
2023/08/13 11:39:13;;;;;;;6.70;3.70;;;;;;;;;;4989934;28;20060;-65
2023/08/13 11:41:39;;;;;;;7.95;3.15;;;;;;;;;;4991582;28;20077;-64
2023/08/13 11:44:10;;;;;;;7.13;2.83;;;;;;;;;;4991502;28;20454;-64
2023/08/13 11:46:55;;;;;;;4.88;2.40;;;;;;;;;;4989226;28;20081;-65
2023/08/13 11:49:22;;;;;;;7.00;3.33;;;;;;;;;;4989696;28;20099;-64
2023/08/13 11:51:49;;;;;;;5.15;3.05;;;;;;;;;;4993664;28;20038;-64
2023/08/13 11:54:17;;;;;;;5.10;3.03;;;;;;;;;;4988753;28;20074;-65
2023/08/13 11:56:43;;;;;;;8.70;3.78;;;;;;;;;;4990303;28;20082;-64
2023/08/13 11:59:09;;;;;;;4.47;2.70;;;;;;;;;;4994368;28;20149;-64
2023/08/13 12:01:36;;;;;;;9.02;3.33;;;;;;;;;;4994602;28;20117;-65
2023/08/13 12:04:06;;;;;;;6.53;3.67;;;;;;;;;;4995429;28;20044;-65
2023/08/13 12:06:35;;;;;;;7.20;2.88;;;;;;;;;;4989653;28;20073;-64
2023/08/13 12:09:03;;;;;;;5.45;3.35;;;;;;;;;;4993971;28;20462;-65
2023/08/13 12:11:29;;;;;;;5.10;3.15;;;;;;;;;;4976585;28;20038;-64
2023/08/13 12:13:56;;;;;;;4.38;3.10;;;;;;;;;;4989978;28;20581;-64
2023/08/13 12:16:22;;;;;;;7.97;3.72;;;;;;;;;;4989661;28;20085;-65
2023/08/13 12:18:48;;;;;;;6.10;3.05;;;;;;;;;;4989000;28;20716;-65
2023/08/13 12:21:14;;;;;;;11.75;3.63;;;;;;;;;;4984111;28;20049;-63
2023/08/13 12:23:40;;;;;;;5.55;2.97;;;;;;;;;;4988594;28;20052;-64
2023/08/13 12:26:06;;;;;;;4.78;2.35;;;;;;;;;;4989516;28;20046;-64
2023/08/13 12:28:33;;;;;;;5.13;2.80;;;;;;;;;;4989722;28;20105;-65
2023/08/13 12:31:00;;;;;;;7.13;2.53;;;;;;;;;;4988942;28;20492;-64
2023/08/13 12:33:26;;;;;;;7.38;2.60;;;;;;;;;;4992683;28;20589;-64
2023/08/13 12:35:52;;;;;;;3.17;2.35;;;;;;;;;;4991300;28;20045;-63
2023/08/13 12:38:18;;;;;;;6.80;2.47;;;;;;;;;;4990599;28;20556;-64
2023/08/13 12:40:45;;;;;;;9.65;3.13;;;;;;;;;;4989489;28;20038;-64
2023/08/13 12:43:11;;;;;;;5.80;2.80;;;;;;;;;;4991467;28;20514;-64
2023/08/13 12:45:37;;;;;;;2.90;1.75;;;;;;;;;;4974260;28;20038;-65
2023/08/13 12:48:04;;;;;;;5.43;2.10;;;;;;;;;;4989667;28;20505;-64
2023/08/13 12:50:30;;;;;;;5.43;2.40;;;;;;;;;;4989427;28;20046;-64
2023/08/13 12:52:57;;;;;;;2.30;1.40;;;;;;;;;;4980562;28;20042;-64
2023/08/13 12:55:23;;;;;;;3.42;2.00;;;;;;;;;;4972960;28;20101;-65
2023/08/13 12:57:49;;;;;;;5.25;2.65;;;;;;;;;;4989775;28;20085;-64
2023/08/13 13:00:15;;;;;;;3.05;1.25;;;;;;;;;;4983997;28;20042;-66
2023/08/13 13:02:41;;;;;;;3.65;1.95;;;;;;;;;;4988028;28;20054;-64
2023/08/13 13:05:07;;;;;;;2.58;1.80;;;;;;;;;;4988461;28;20398;-64
2023/08/13 13:07:34;;;;;;;3.45;1.60;;;;;;;;;;4982693;28;20046;-64
2023/08/13 13:10:00;;;;;;;3.67;2.22;;;;;;;;;;4988470;28;20049;-64
2023/08/13 13:12:26;;;;;;;3.50;1.60;;;;;;;;;;4987632;28;20038;-64
2023/08/13 13:14:52;;;;;;;2.72;1.65;;;;;;;;;;4987442;28;20486;-64
2023/08/13 13:17:26;;;;;;;6.15;1.92;;;;;;;;;;4987923;28;20472;-64
2023/08/13 13:19:54;;;;;;;2.17;1.33;;;;;;;;;;4987688;28;20138;-65
2023/08/13 13:22:26;;;;;;;3.97;1.38;;;;;;;;;;4986512;28;20053;-65
2023/08/13 13:24:52;;;;;;;2.25;1.23;;;;;;;;;;4984625;28;20427;-65
2023/08/13 13:27:18;;;;;;;2.97;1.63;;;;;;;;;;4987383;28;20050;-64
2023/08/13 13:29:45;;;;;;;3.85;1.35;;;;;;;;;;4985591;28;20113;-64
2023/08/13 13:32:11;;;;;;;2.28;1.33;;;;;;;;;;4992649;28;20667;-64
2023/08/13 13:34:37;;;;;;;2.78;1.00;;;;;;;;;;4972445;28;20042;-65
2023/08/13 13:37:04;;;;;;;3.10;1.42;;;;;;;;;;4987671;28;20444;-64
2023/08/13 13:39:30;;;;;;;3.35;0.90;;;;;;;;;;4987906;28;20074;-64
2023/08/13 13:41:56;;;;;;;2.22;0.95;;;;;;;;;;4973603;28;20088;-64
2023/08/13 13:44:23;;;;;;;2.45;1.40;;;;;;;;;;4986601;28;20706;-64
2023/08/13 13:46:49;;;;;;;7.40;1.30;;;;;;;;;;4986935;28;20430;-64
2023/08/13 13:49:15;;;;;;;5.78;2.25;;;;;;;;;;4989205;28;20121;-64
2023/08/13 13:51:42;;;;;;;1.85;1.00;;;;;;;;;;4987286;28;20431;-64
2023/08/13 13:54:08;;;;;;;2.97;1.10;;;;;;;;;;4972642;28;20050;-65
2023/08/13 13:56:34;;;;;;;3.10;1.40;;;;;;;;;;4988484;28;20069;-64
2023/08/13 13:59:00;;;;;;;2.50;1.60;;;;;;;;;;4895692;28;2539570;-64
2023/08/13 14:01:27;;;;;;;3.55;1.60;;;;;;;;;;4986814;28;20062;-64
2023/08/13 14:03:53;;;;;;;3.53;1.40;;;;;;;;;;4988893;28;20049;-63
2023/08/13 14:06:19;;;;;;;4.88;1.63;;;;;;;;;;4986296;28;20077;-64
2023/08/13 14:08:45;;;;;;;1.75;1.17;;;;;;;;;;4966471;28;20134;-64
2023/08/13 14:11:11;;;;;;;4.00;1.73;;;;;;;;;;4993612;28;20046;-65
2023/08/13 14:13:37;;;;;;;5.10;1.70;;;;;;;;;;4987325;28;20132;-64
2023/08/13 14:16:03;;;;;;;3.83;1.30;;;;;;;;;;4992559;28;20528;-64
2023/08/13 14:18:30;;;;;;;4.25;2.10;;;;;;;;;;4987441;28;20057;-64
2023/08/13 14:20:56;;;;;;;3.83;1.65;;;;;;;;;;4996035;28;20046;-64
2023/08/13 14:23:22;;;;;;;6.28;1.95;;;;;;;;;;4987329;28;20121;-64
2023/08/13 14:25:50;;;;;;;5.43;1.55;;;;;;;;;;4993321;28;20126;-64
2023/08/13 14:28:16;;;;;;;4.80;1.65;;;;;;;;;;4983023;28;20034;-64
2023/08/13 14:30:42;;;;;;;4.13;1.55;;;;;;;;;;4984548;28;20035;-63
2023/08/13 14:33:08;;;;;;;3.53;1.45;;;;;;;;;;4990128;28;20038;-63
2023/08/13 14:35:34;;;;;;;2.10;0.90;;;;;;;;;;4993351;28;20155;-64
2023/08/13 14:38:01;;;;;;;4.95;1.45;;;;;;;;;;4970397;28;20038;-64